Latest Weather Observations for Maroochydore

IDQ60901

Issued at 10:12 pm EST Tuesday 5 May 2015 (issued every 10 minutes, with the page automatically refreshed every 10 minutes)

About weather observations | Map of Brisbane area stations | Latest observations for Brisbane area | Other Formats
Station Details ID: 040861 Name: SUNSHINE COAST AIRPORT Lat: -26.60 Lon: 153.09 Height: 3.3 m
Data from the previous 72 hours. | See also: Recent months at Maroochydore
Date/Time
EST
Tmp

°C
App
Tmp
°C
Dew
Point
°C
Rel
Hum
%
Delta-T

°C
Wind Press
QNH
hPa
Press
MSL
hPa
Rain
since
9 am
mm
Dir
 
Spd
km/h
Gust
km/h
Spd
kts
Gust
kts
05/10:00pm 18.8 19.8 17.8 94 0.6 NNW 9 11 5 6 1013.2 - 0.0
05/09:30pm 18.9 20.0 17.9 94 0.6 WNW 9 11 5 6 1013.2 - 0.0
05/09:00pm 19.2 20.3 18.0 93 0.7 W 9 9 5 5 1013.1 1013.1 0.0
05/08:30pm 19.5 21.3 18.2 92 0.8 W 6 9 3 5 1012.7 - 0.0
05/07:30pm 19.8 21.8 17.9 89 1.2 W 4 7 2 4 1011.8 - 0.0
05/06:30pm 21.3 22.7 18.7 85 1.6 N 9 11 5 6 1011.0 - 0.0
05/05:30pm 22.6 22.3 19.2 81 2.2 NNE 19 24 10 13 1010.5 - 0.0
05/05:00pm 22.9 23.0 19.1 79 2.4 NNE 17 22 9 12 1010.2 - 0.0
05/04:30pm 23.8 23.9 19.1 75 3.0 NNE 17 20 9 11 1010.2 - 0.0
05/04:00pm 24.9 25.2 19.5 72 3.5 NNE 17 24 9 13 1010.0 - 0.0
05/03:30pm 25.7 25.9 19.3 67 4.1 NNE 17 22 9 12 1010.0 - 0.0
05/03:00pm 26.1 26.4 19.5 67 4.3 NE 17 20 9 11 1010.0 1010.0 0.0
05/02:30pm 26.2 26.0 18.6 63 4.8 NE 17 20 9 11 1010.2 - 0.0
05/02:00pm 26.4 26.6 19.3 65 4.6 NE 17 20 9 11 1010.4 - 0.0
05/01:30pm 26.5 26.5 18.9 63 4.9 NE 17 20 9 11 1010.8 - 0.0
05/01:00pm 26.7 26.8 19.1 63 4.9 NE 17 20 9 11 1011.0 - 0.0
05/12:30pm 26.5 26.9 18.9 63 4.9 NE 15 20 8 11 1011.6 - 0.0
05/12:00pm 26.3 26.1 18.4 61 5.0 NE 17 20 9 11 1012.2 1012.2 0.0
05/11:30am 26.2 26.9 19.6 67 4.3 NE 15 19 8 10 1012.9 - 0.0
05/11:00am 25.4 25.8 19.1 68 4.0 ENE 15 17 8 9 1013.3 - 0.0
05/10:30am 25.0 26.0 18.7 68 4.0 ENE 11 15 6 8 1013.6 - 0.0
05/10:00am 26.1 27.6 18.0 61 5.1 N 7 11 4 6 1013.9 - 0.0
05/09:30am 24.6 25.8 18.3 68 4.0 WNW 9 13 5 7 1014.1 - 0.0
05/09:00am 22.4 23.7 18.4 78 2.5 W 9 11 5 6 1014.2 1014.2 0.0
05/08:00am 18.7 19.9 17.4 92 0.8 WSW 7 11 4 6 1013.8 - 0.0
05/06:30am 14.7 14.7 14.1 96 0.3 W 7 9 4 5 1013.0 - 0.0
05/05:30am 14.6 14.2 14.0 96 0.3 W 9 9 5 5 1012.8 - 0.0
05/05:00am 14.8 14.8 14.2 96 0.3 W 7 9 4 5 1012.7 - 0.0
05/04:30am 14.8 14.4 14.2 96 0.3 W 9 9 5 5 1012.4 - 0.0
05/04:00am 15.0 14.7 14.4 96 0.3 W 9 9 5 5 1012.4 - 0.0
05/03:00am 15.5 15.4 14.9 96 0.3 W 9 9 5 5 1012.5 1012.5 0.0
05/02:30am 15.5 15.4 14.9 96 0.3 W 9 9 5 5 1012.6 - 0.0
05/02:00am 15.4 15.2 14.8 96 0.3 W 9 9 5 5 1012.8 - 0.0
05/01:30am 15.6 17.2 14.8 95 0.5 CALM 0 0 0 0 1013.1 - 0.0
05/01:00am 15.8 17.4 15.0 95 0.5 CALM 0 0 0 0 1013.4 - 0.0
05/12:30am 15.8 17.4 15.0 95 0.5 CALM 0 0 0 0 1013.7 - 0.0
 
Date/Time
EST
Tmp

°C
App
Tmp
°C
Dew
Point
°C
Rel
Hum
%
Delta-T

°C
Wind Press
QNH
hPa
Press
MSL
hPa
Rain
since
9 am
mm
Dir
 
Spd
km/h
Gust
km/h
Spd
kts
Gust
kts
04/11:30pm 16.0 17.6 15.0 94 0.6 CALM 0 0 0 0 1014.0 - 0.0
04/11:00pm 16.1 17.8 15.3 95 0.5 CALM 0 0 0 0 1014.2 - 0.0
04/10:30pm 16.2 18.0 15.4 95 0.5 CALM 0 0 0 0 1014.3 - 0.0
04/10:00pm 16.1 17.8 15.1 94 0.6 CALM 0 0 0 0 1014.3 - 0.0
04/09:30pm 16.2 17.9 15.1 93 0.6 CALM 0 0 0 0 1014.2 - 0.0
04/09:00pm 16.3 17.9 15.0 92 0.7 CALM 0 0 0 0 1014.2 1014.2 0.0
04/08:30pm 17.0 19.0 15.9 93 0.6 CALM 0 0 0 0 1013.9 - 0.0
04/08:00pm 17.3 19.4 16.2 93 0.7 CALM 0 0 0 0 1013.8 - 0.0
04/07:30pm 17.0 18.7 15.2 89 1.0 CALM 0 0 0 0 1013.5 - 0.0
04/07:00pm 18.0 19.5 15.8 87 1.3 W 2 6 1 3 1013.3 - 0.0
04/06:30pm 18.8 19.5 15.7 82 1.8 W 6 9 3 5 1013.2 - 0.0
04/06:00pm 20.9 21.6 16.1 74 2.9 ESE 7 9 4 5 1012.8 1012.8 0.0
04/05:30pm 21.7 22.1 16.4 72 3.2 ESE 9 11 5 6 1012.5 - 0.0
04/05:00pm 22.4 22.7 17.1 72 3.3 ESE 11 17 6 9 1012.2 - 0.0
04/04:30pm 23.0 22.6 16.1 65 4.2 ESE 13 17 7 9 1011.7 - 0.0
04/04:00pm 23.7 22.4 14.9 57 5.2 ESE 15 19 8 10 1011.6 - 0.0
04/03:30pm 24.3 23.0 15.8 59 5.1 ESE 17 20 9 11 1011.4 - 0.0
04/03:00pm 24.7 23.1 15.1 55 5.8 ESE 17 20 9 11 1011.4 1011.4 0.0
04/02:30pm 24.7 22.5 14.8 54 5.9 ESE 20 24 11 13 1011.5 - 0.0
04/02:00pm 25.4 22.8 13.9 49 6.8 SE 20 26 11 14 1011.4 - 0.0
04/01:30pm 25.5 22.8 13.4 47 7.1 SE 20 28 11 15 1011.5 - 0.0
04/01:00pm 25.1 23.1 15.4 55 5.9 SE 20 28 11 15 1011.8 - 0.0
04/12:30pm 25.1 23.5 16.5 59 5.3 SE 20 26 11 14 1012.2 - 0.0
04/12:00pm 25.2 24.0 16.1 57 5.6 SE 17 20 9 11 1012.7 1012.7 0.0
04/11:30am 25.1 24.6 16.0 57 5.5 SE 13 17 7 9 1013.2 - 0.0
04/11:00am 24.6 23.6 16.6 61 4.9 SE 17 20 9 11 1013.5 - 0.0
04/10:30am 24.2 24.0 16.7 63 4.6 ESE 13 15 7 8 1013.7 - 0.0
04/10:00am 24.1 24.0 16.1 61 4.9 S 11 15 6 8 1013.8 - 0.0
04/09:30am 23.4 23.6 16.7 66 4.1 S 11 19 6 10 1013.9 - 0.0
04/09:00am 21.4 22.2 17.2 77 2.6 SSW 9 13 5 7 1013.9 1013.9 0.0
04/08:30am 19.8 20.9 17.9 89 1.2 WSW 9 13 5 7 1013.8 - 0.0
04/08:00am 18.5 19.9 17.3 93 0.7 SW 6 7 3 4 1013.6 - 0.0
04/07:30am 17.2 18.7 16.6 96 0.4 SSW 4 6 2 3 1013.6 - 0.0
04/07:00am 15.7 16.3 15.2 97 0.3 SW 6 7 3 4 1013.3 - 0.0
04/06:30am 14.2 14.2 13.6 96 0.3 WSW 6 7 3 4 1013.1 - 0.0
04/06:00am 14.4 14.3 13.8 96 0.3 W 7 7 4 4 1012.5 1012.5 0.0
04/05:59am 14.4 14.3 13.8 96 0.3 W 7 7 4 4 1012.5 - 0.0
04/05:36am 14.5 14.6 13.9 96 0.3 W 6 7 3 4 1012.3 - 0.0
04/05:30am 14.6 14.7 14.0 96 0.3 W 6 7 3 4 1012.3 - 0.0
04/05:00am 15.0 15.1 14.4 96 0.3 W 7 9 4 5 1012.0 - 0.0
04/04:30am 14.6 14.5 14.0 96 0.3 W 7 7 4 4 1011.9 - 0.0
04/04:23am 14.8 15.0 14.2 96 0.3 W 6 7 3 4 1011.9 - 0.0
04/04:00am 15.0 15.3 14.4 96 0.3 W 6 7 3 4 1011.9 - 0.0
04/03:44am 15.1 15.4 14.5 96 0.3 W 6 7 3 4 1011.7 - 0.0
04/03:43am 15.1 15.4 14.5 96 0.3 W 6 7 3 4 1011.7 - 0.0
04/03:30am 15.5 15.8 14.9 96 0.3 W 7 7 4 4 1011.6 - 0.0
04/03:11am 15.3 15.7 14.7 96 0.3 W 6 9 3 5 1011.6 - 0.0
04/03:00am 15.6 15.5 15.0 96 0.3 W 9 9 5 5 1011.6 1011.6 0.0
04/02:50am 15.5 15.4 14.9 96 0.3 W 9 11 5 6 1011.6 - 0.0
04/02:30am 15.7 16.0 15.1 96 0.3 W 7 9 4 5 1011.5 - 0.0
04/02:18am 15.9 16.3 15.3 96 0.3 W 7 9 4 5 1011.6 - 0.0
04/02:09am 15.5 15.8 14.9 96 0.3 W 7 9 4 5 1011.6 - 0.0
04/02:00am 15.7 15.7 15.1 96 0.3 W 9 9 5 5 1011.7 - 0.0
04/01:30am 16.0 17.0 15.4 96 0.3 WSW 4 7 2 4 1011.8 - 0.0
04/01:28am 16.1 17.2 15.5 96 0.3 WSW 4 7 2 4 1011.8 - 0.0
04/01:00am 16.4 17.0 15.8 96 0.4 W 7 7 4 4 1012.3 - 0.0
04/12:33am 16.2 16.3 15.4 95 0.5 W 9 9 5 5 1012.4 - 0.0
04/12:30am 16.2 16.6 15.4 95 0.5 W 7 9 4 5 1012.4 - 0.0
04/12:15am 16.2 16.6 15.2 94 0.6 W 7 9 4 5 1012.3 - 0.0
04/12:00am 16.4 17.1 15.6 95 0.5 W 6 7 3 4 1012.4 1012.4 0.0
 
Date/Time
EST
Tmp

°C
App
Tmp
°C
Dew
Point
°C
Rel
Hum
%
Delta-T

°C
Wind Press
QNH
hPa
Press
MSL
hPa
Rain
since
9 am
mm
Dir
 
Spd
km/h
Gust
km/h
Spd
kts
Gust
kts
03/11:30pm 16.7 17.5 15.9 95 0.5 WSW 6 7 3 4 1012.6 - 0.0
03/11:00pm 16.9 17.5 15.9 94 0.6 W 7 9 4 5 1012.8 - 0.0
03/10:30pm 17.0 17.7 16.0 94 0.6 W 7 7 4 4 1013.0 - 0.0
03/10:00pm 17.4 18.4 16.3 93 0.7 WSW 6 7 3 4 1013.0 - 0.0
03/09:30pm 17.5 18.4 16.2 92 0.8 WSW 6 7 3 4 1013.1 - 0.0
03/09:00pm 18.2 19.2 16.9 92 0.8 WSW 7 7 4 4 1013.1 1013.1 0.0
03/08:30pm 18.6 20.6 16.9 90 1.0 WNW 2 7 1 4 1013.0 - 0.0
03/08:00pm 19.2 21.8 17.5 90 1.0 CALM 0 0 0 0 1012.8 - 0.0
03/07:30pm 19.1 20.2 17.2 89 1.2 WNW 7 9 4 5 1012.6 - 0.0
03/07:00pm 19.1 19.7 16.9 87 1.3 NW 9 11 5 6 1012.3 - 0.0
03/06:30pm 19.5 20.2 16.2 81 2.0 NNW 7 7 4 4 1011.8 - 0.0
03/06:00pm 20.9 21.7 16.3 75 2.8 NE 7 9 4 5 1011.4 1011.4 0.0
03/05:30pm 21.7 22.1 16.2 71 3.3 NE 9 11 5 6 1011.0 - 0.0
03/05:00pm 22.5 22.8 16.1 67 3.9 E 9 11 5 6 1010.9 - 0.0
03/04:30pm 23.0 23.1 15.6 63 4.4 E 9 13 5 7 1010.4 - 0.0
03/04:00pm 23.8 24.3 15.6 60 4.9 ENE 7 11 4 6 1010.0 - 0.0
03/03:30pm 24.0 24.2 15.8 60 5.0 ENE 9 11 5 6 1010.0 - 0.0
03/03:00pm 25.4 25.4 17.1 60 5.2 NE 13 15 7 8 1009.9 1009.9 0.0
03/02:30pm 23.8 24.0 15.8 61 4.8 ENE 9 13 5 7 1009.7 - 0.0
03/02:00pm 24.8 25.0 16.8 61 4.9 ENE 11 15 6 8 1009.9 - 0.0
03/01:30pm 24.0 23.7 16.5 63 4.6 E 13 19 7 10 1009.9 - 0.0
03/01:00pm 22.5 22.2 16.5 69 3.6 ENE 13 17 7 9 1010.1 - 0.0
03/12:30pm 23.4 22.4 16.7 66 4.1 ENE 17 19 9 10 1010.3 - 0.0
03/12:00pm 26.9 27.5 16.8 54 6.3 W 9 15 5 8 1010.6 1010.6 0.0
03/11:30am 25.3 26.2 16.7 59 5.3 NW 7 13 4 7 1011.4 - 0.0
03/11:00am 24.4 24.8 15.3 57 5.5 WSW 7 13 4 7 1011.7 - 0.0
03/10:30am 23.8 23.8 15.3 59 5.1 WNW 9 15 5 8 1012.0 - 0.0
03/10:00am 23.0 23.1 15.6 63 4.4 NW 9 13 5 7 1012.3 - 0.0
03/09:30am 22.1 21.8 15.5 66 3.9 WNW 11 17 6 9 1012.4 - 0.0
03/09:00am 21.0 21.3 16.0 73 3.0 NNW 9 13 5 7 1012.5 1012.5 0.2
03/08:30am 19.6 19.3 15.5 77 2.4 NNW 11 15 6 8 1012.8 - 0.2
03/08:00am 18.0 18.1 15.6 86 1.4 WNW 9 11 5 6 1012.6 - 0.2
03/07:30am 16.5 16.5 15.2 92 0.8 NW 9 11 5 6 1012.4 - 0.2
03/07:00am 15.1 14.8 14.5 96 0.3 WNW 9 11 5 6 1012.0 - 0.2
03/06:30am 13.4 12.5 12.6 95 0.4 W 9 11 5 6 1011.8 - 0.2
03/06:00am 13.6 13.1 12.8 95 0.4 W 7 7 4 4 1011.6 1011.6 0.0
03/05:30am 14.1 13.1 13.3 95 0.4 WNW 11 11 6 6 1011.2 - 0.0
03/05:00am 14.4 14.1 13.4 94 0.6 WNW 7 9 4 5 1011.1 - 0.0
03/04:30am 15.0 14.6 14.0 94 0.6 WNW 9 13 5 7 1011.1 - 0.0
03/04:00am 15.2 15.5 14.4 95 0.5 NNW 6 9 3 5 1011.1 - 0.0
03/03:30am 15.1 15.7 14.3 95 0.5 NNE 4 9 2 5 1010.9 - 0.0
03/03:00am 14.7 15.9 13.7 94 0.6 CALM 0 0 0 0 1011.0 1011.0 0.0
03/02:30am 14.7 15.5 13.7 94 0.6 W 2 6 1 3 1010.7 - 0.0
03/02:00am 14.9 14.0 13.8 93 0.6 WNW 11 13 6 7 1010.8 - 0.0
03/01:30am 15.2 14.4 14.1 93 0.6 NW 11 15 6 8 1011.1 - 0.0
03/01:00am 15.2 14.0 13.9 92 0.7 NW 13 15 7 8 1011.2 - 0.0
03/12:30am 15.3 14.9 14.0 92 0.7 NW 9 11 5 6 1011.3 - 0.0
03/12:00am 15.2 14.7 13.9 92 0.7 NW 9 13 5 7 1011.7 1011.7 0.0
 
Date/Time
EST
Tmp

°C
App
Tmp
°C
Dew
Point
°C
Rel
Hum
%
Delta-T

°C
Wind Press
QNH
hPa
Press
MSL
hPa
Rain
since
9 am
mm
Dir
 
Spd
km/h
Gust
km/h
Spd
kts
Gust
kts
02/11:30pm 15.5 15.1 14.0 91 0.8 W 9 13 5 7 1012.0 - 0.0
02/11:00pm 15.5 14.7 14.0 91 0.8 NW 11 15 6 8 1012.1 - 0.0
02/10:30pm 15.3 14.4 13.8 91 0.8 NW 11 15 6 8 1012.6 - 0.0

Latest Capital City Observations: Canberra | Sydney | Melbourne | Brisbane | Adelaide | Perth | Hobart | Darwin

Other Formats:

Comma delimited format used in spreadsheet applications
http://www.bom.gov.au/fwo/IDQ60901/IDQ60901.94569.axf

JavaScript Object Notation format (JSON) in row-major order
http://www.bom.gov.au/fwo/IDQ60901/IDQ60901.94569.json